sensor_id;sensor_type;location;lat;lon;timestamp;P1;durP1;ratioP1;P2;durP2;ratioP2
14734;SDS011;7458;49.002;8.472;2023-08-30T00:00:16;1145.85;;;962.05;;
14734;SDS011;7458;49.002;8.472;2023-08-30T00:02:43;1182.32;;;884.15;;
14734;SDS011;7458;49.002;8.472;2023-08-30T00:05:10;1215.22;;;957.95;;
14734;SDS011;7458;49.002;8.472;2023-08-30T00:07:36;1232.10;;;999.90;;
14734;SDS011;7458;49.002;8.472;2023-08-30T00:10:02;1232.07;;;999.90;;
14734;SDS011;7458;49.002;8.472;2023-08-30T00:12:32;1225.07;;;999.65;;
14734;SDS011;7458;49.002;8.472;2023-08-30T00:14:58;1213.40;;;969.60;;
14734;SDS011;7458;49.002;8.472;2023-08-30T00:17:25;1170.00;;;999.90;;
14734;SDS011;7458;49.002;8.472;2023-08-30T00:19:51;1167.75;;;990.13;;
14734;SDS011;7458;49.002;8.472;2023-08-30T00:22:18;1193.75;;;900.97;;
14734;SDS011;7458;49.002;8.472;2023-08-30T00:24:44;1172.70;;;997.97;;
14734;SDS011;7458;49.002;8.472;2023-08-30T00:27:10;1197.20;;;897.42;;
14734;SDS011;7458;49.002;8.472;2023-08-30T00:29:37;1150.95;;;950.60;;
14734;SDS011;7458;49.002;8.472;2023-08-30T00:32:03;1245.78;;;999.90;;
14734;SDS011;7458;49.002;8.472;2023-08-30T00:34:29;1204.63;;;999.90;;
14734;SDS011;7458;49.002;8.472;2023-08-30T00:36:55;1210.70;;;954.97;;
14734;SDS011;7458;49.002;8.472;2023-08-30T00:39:21;1201.85;;;925.65;;
14734;SDS011;7458;49.002;8.472;2023-08-30T00:41:48;1163.28;;;969.25;;
14734;SDS011;7458;49.002;8.472;2023-08-30T00:44:14;1148.25;;;931.05;;
14734;SDS011;7458;49.002;8.472;2023-08-30T00:46:40;1178.95;;;999.90;;
14734;SDS011;7458;49.002;8.472;2023-08-30T00:49:06;1159.57;;;969.05;;
14734;SDS011;7458;49.002;8.472;2023-08-30T00:51:32;1188.20;;;872.45;;
14734;SDS011;7458;49.002;8.472;2023-08-30T00:53:59;1189.13;;;870.33;;
14734;SDS011;7458;49.002;8.472;2023-08-30T00:56:28;1134.47;;;935.60;;
14734;SDS011;7458;49.002;8.472;2023-08-30T00:58:55;1162.20;;;994.85;;
14734;SDS011;7458;49.002;8.472;2023-08-30T01:01:22;1139.10;;;913.70;;
14734;SDS011;7458;49.002;8.472;2023-08-30T01:03:48;1170.22;;;873.13;;
14734;SDS011;7458;49.002;8.472;2023-08-30T01:06:14;1157.57;;;870.65;;
14734;SDS011;7458;49.002;8.472;2023-08-30T01:08:41;1112.82;;;921.53;;
14734;SDS011;7458;49.002;8.472;2023-08-30T01:11:18;1143.95;;;867.83;;
14734;SDS011;7458;49.002;8.472;2023-08-30T01:14:14;1142.85;;;872.50;;
14734;SDS011;7458;49.002;8.472;2023-08-30T01:16:47;1218.47;;;944.75;;
14734;SDS011;7458;49.002;8.472;2023-08-30T01:22:08;1140.55;;;931.13;;
14734;SDS011;7458;49.002;8.472;2023-08-30T01:28:16;1169.45;;;872.28;;
14734;SDS011;7458;49.002;8.472;2023-08-30T01:30:46;1169.53;;;871.85;;
14734;SDS011;7458;49.002;8.472;2023-08-30T01:33:13;1126.88;;;939.20;;
14734;SDS011;7458;49.002;8.472;2023-08-30T01:35:42;1122.28;;;941.83;;
14734;SDS011;7458;49.002;8.472;2023-08-30T01:38:09;1118.95;;;941.78;;
14734;SDS011;7458;49.002;8.472;2023-08-30T01:40:37;1111.22;;;938.33;;
14734;SDS011;7458;49.002;8.472;2023-08-30T01:43:07;1100.50;;;934.70;;
14734;SDS011;7458;49.002;8.472;2023-08-30T01:45:36;1096.20;;;933.13;;
14734;SDS011;7458;49.002;8.472;2023-08-30T01:48:07;1096.78;;;939.53;;
14734;SDS011;7458;49.002;8.472;2023-08-30T01:50:38;1225.65;;;999.90;;
14734;SDS011;7458;49.002;8.472;2023-08-30T01:53:08;1305.55;;;999.90;;
14734;SDS011;7458;49.002;8.472;2023-08-30T01:55:37;1223.40;;;999.90;;
14734;SDS011;7458;49.002;8.472;2023-08-30T01:58:04;1199.97;;;975.13;;
14734;SDS011;7458;49.002;8.472;2023-08-30T02:00:31;1136.53;;;931.47;;
14734;SDS011;7458;49.002;8.472;2023-08-30T02:02:57;1161.22;;;869.83;;
14734;SDS011;7458;49.002;8.472;2023-08-30T02:05:23;1147.03;;;861.78;;
14734;SDS011;7458;49.002;8.472;2023-08-30T02:08:09;1176.25;;;999.90;;
14734;SDS011;7458;49.002;8.472;2023-08-30T02:10:45;1188.45;;;999.90;;
14734;SDS011;7458;49.002;8.472;2023-08-30T02:13:21;1129.68;;;918.40;;
14734;SDS011;7458;49.002;8.472;2023-08-30T02:15:52;1122.57;;;924.00;;
14734;SDS011;7458;49.002;8.472;2023-08-30T02:18:24;1147.28;;;861.88;;
14734;SDS011;7458;49.002;8.472;2023-08-30T02:20:51;1127.35;;;934.83;;
14734;SDS011;7458;49.002;8.472;2023-08-30T02:23:18;1114.25;;;925.15;;
14734;SDS011;7458;49.002;8.472;2023-08-30T02:25:44;1161.03;;;867.30;;
14734;SDS011;7458;49.002;8.472;2023-08-30T02:28:10;1147.07;;;914.47;;
14734;SDS011;7458;49.002;8.472;2023-08-30T02:30:35;1186.10;;;847.75;;
14734;SDS011;7458;49.002;8.472;2023-08-30T02:33:02;1140.65;;;915.63;;
14734;SDS011;7458;49.002;8.472;2023-08-30T02:35:28;1178.75;;;865.03;;
14734;SDS011;7458;49.002;8.472;2023-08-30T02:37:54;1173.72;;;865.10;;
14734;SDS011;7458;49.002;8.472;2023-08-30T02:40:20;1171.28;;;857.35;;
14734;SDS011;7458;49.002;8.472;2023-08-30T02:42:46;1170.53;;;859.05;;
14734;SDS011;7458;49.002;8.472;2023-08-30T02:45:12;1135.07;;;928.58;;
14734;SDS011;7458;49.002;8.472;2023-08-30T02:47:38;1133.85;;;939.55;;
14734;SDS011;7458;49.002;8.472;2023-08-30T02:50:04;1112.00;;;929.10;;
14734;SDS011;7458;49.002;8.472;2023-08-30T02:52:30;1142.88;;;869.90;;
14734;SDS011;7458;49.002;8.472;2023-08-30T02:54:56;1108.78;;;926.20;;
14734;SDS011;7458;49.002;8.472;2023-08-30T02:57:23;1139.45;;;876.42;;
14734;SDS011;7458;49.002;8.472;2023-08-30T02:59:48;1134.13;;;872.28;;
14734;SDS011;7458;49.002;8.472;2023-08-30T03:02:14;1135.78;;;882.60;;
14734;SDS011;7458;49.002;8.472;2023-08-30T03:04:40;1135.32;;;874.35;;
14734;SDS011;7458;49.002;8.472;2023-08-30T03:07:06;1095.47;;;932.08;;
14734;SDS011;7458;49.002;8.472;2023-08-30T03:09:33;1093.85;;;935.75;;
14734;SDS011;7458;49.002;8.472;2023-08-30T03:11:59;1090.57;;;937.65;;
14734;SDS011;7458;49.002;8.472;2023-08-30T03:14:24;1093.90;;;926.28;;
14734;SDS011;7458;49.002;8.472;2023-08-30T03:16:50;1122.72;;;876.17;;
14734;SDS011;7458;49.002;8.472;2023-08-30T03:19:16;1114.68;;;873.20;;
14734;SDS011;7458;49.002;8.472;2023-08-30T03:21:42;1077.82;;;930.95;;
14734;SDS011;7458;49.002;8.472;2023-08-30T03:24:08;1079.55;;;933.28;;
14734;SDS011;7458;49.002;8.472;2023-08-30T03:26:35;1079.15;;;938.83;;
14734;SDS011;7458;49.002;8.472;2023-08-30T03:29:00;1102.20;;;883.35;;
14734;SDS011;7458;49.002;8.472;2023-08-30T03:31:27;1136.50;;;915.03;;
14734;SDS011;7458;49.002;8.472;2023-08-30T03:33:53;1127.03;;;921.03;;
14734;SDS011;7458;49.002;8.472;2023-08-30T03:36:19;1155.30;;;864.97;;
14734;SDS011;7458;49.002;8.472;2023-08-30T03:38:46;1126.00;;;873.50;;
14734;SDS011;7458;49.002;8.472;2023-08-30T03:41:12;1099.20;;;923.03;;
14734;SDS011;7458;49.002;8.472;2023-08-30T03:43:38;1131.78;;;860.05;;
14734;SDS011;7458;49.002;8.472;2023-08-30T03:46:04;1237.97;;;996.33;;
14734;SDS011;7458;49.002;8.472;2023-08-30T03:48:31;1343.55;;;999.90;;
14734;SDS011;7458;49.002;8.472;2023-08-30T03:50:57;1204.93;;;999.90;;
14734;SDS011;7458;49.002;8.472;2023-08-30T03:53:24;1243.22;;;998.53;;
14734;SDS011;7458;49.002;8.472;2023-08-30T03:55:50;1243.70;;;999.90;;
14734;SDS011;7458;49.002;8.472;2023-08-30T03:58:20;1244.72;;;999.90;;
14734;SDS011;7458;49.002;8.472;2023-08-30T04:00:52;1242.10;;;999.90;;
14734;SDS011;7458;49.002;8.472;2023-08-30T04:03:18;1242.38;;;999.90;;
14734;SDS011;7458;49.002;8.472;2023-08-30T04:05:45;1253.00;;;999.90;;
14734;SDS011;7458;49.002;8.472;2023-08-30T04:08:11;1243.55;;;999.90;;
14734;SDS011;7458;49.002;8.472;2023-08-30T04:10:41;1227.47;;;998.90;;
14734;SDS011;7458;49.002;8.472;2023-08-30T04:13:07;1222.43;;;999.90;;
14734;SDS011;7458;49.002;8.472;2023-08-30T04:15:36;1223.68;;;999.90;;
14734;SDS011;7458;49.002;8.472;2023-08-30T04:18:04;1219.03;;;999.90;;
14734;SDS011;7458;49.002;8.472;2023-08-30T04:20:31;1207.75;;;845.72;;
14734;SDS011;7458;49.002;8.472;2023-08-30T04:22:58;1155.63;;;908.20;;
14734;SDS011;7458;49.002;8.472;2023-08-30T04:25:27;1159.30;;;911.97;;
14734;SDS011;7458;49.002;8.472;2023-08-30T04:27:53;1229.97;;;929.00;;
14734;SDS011;7458;49.002;8.472;2023-08-30T04:30:20;1221.60;;;901.20;;
14734;SDS011;7458;49.002;8.472;2023-08-30T04:32:45;1206.90;;;859.55;;
14734;SDS011;7458;49.002;8.472;2023-08-30T04:35:12;1151.85;;;907.50;;
14734;SDS011;7458;49.002;8.472;2023-08-30T04:37:38;1190.88;;;834.40;;
14734;SDS011;7458;49.002;8.472;2023-08-30T04:42:49;1184.30;;;849.90;;
14734;SDS011;7458;49.002;8.472;2023-08-30T04:45:15;1181.25;;;849.22;;
14734;SDS011;7458;49.002;8.472;2023-08-30T04:47:41;1141.55;;;918.25;;
14734;SDS011;7458;49.002;8.472;2023-08-30T04:50:10;1135.47;;;919.08;;
14734;SDS011;7458;49.002;8.472;2023-08-30T04:52:36;1174.85;;;864.42;;
14734;SDS011;7458;49.002;8.472;2023-08-30T04:55:02;1132.60;;;923.17;;
14734;SDS011;7458;49.002;8.472;2023-08-30T04:57:28;1171.38;;;864.00;;
14734;SDS011;7458;49.002;8.472;2023-08-30T04:59:54;1187.47;;;858.28;;
14734;SDS011;7458;49.002;8.472;2023-08-30T05:02:21;1143.18;;;908.33;;
14734;SDS011;7458;49.002;8.472;2023-08-30T05:04:47;1143.65;;;917.63;;
14734;SDS011;7458;49.002;8.472;2023-08-30T05:07:13;1187.18;;;853.97;;
14734;SDS011;7458;49.002;8.472;2023-08-30T05:09:39;1164.13;;;925.55;;
14734;SDS011;7458;49.002;8.472;2023-08-30T05:12:05;1196.45;;;832.25;;
14734;SDS011;7458;49.002;8.472;2023-08-30T05:14:32;1162.43;;;925.67;;
14734;SDS011;7458;49.002;8.472;2023-08-30T05:16:58;1201.07;;;839.60;;
14734;SDS011;7458;49.002;8.472;2023-08-30T05:19:23;1157.03;;;911.28;;
14734;SDS011;7458;49.002;8.472;2023-08-30T05:21:49;1202.53;;;843.63;;
14734;SDS011;7458;49.002;8.472;2023-08-30T05:24:19;1204.03;;;851.80;;
14734;SDS011;7458;49.002;8.472;2023-08-30T05:26:46;1198.55;;;843.70;;
14734;SDS011;7458;49.002;8.472;2023-08-30T05:29:13;1154.53;;;907.17;;
14734;SDS011;7458;49.002;8.472;2023-08-30T05:31:40;1190.18;;;824.03;;
14734;SDS011;7458;49.002;8.472;2023-08-30T05:34:06;1147.40;;;887.60;;
14734;SDS011;7458;49.002;8.472;2023-08-30T05:36:32;1194.88;;;840.95;;
14734;SDS011;7458;49.002;8.472;2023-08-30T05:38:58;1151.40;;;896.58;;
14734;SDS011;7458;49.002;8.472;2023-08-30T05:41:26;1192.68;;;840.17;;
14734;SDS011;7458;49.002;8.472;2023-08-30T05:43:51;1189.18;;;835.55;;
14734;SDS011;7458;49.002;8.472;2023-08-30T05:46:18;1197.05;;;834.85;;
14734;SDS011;7458;49.002;8.472;2023-08-30T05:48:44;1190.50;;;846.58;;
14734;SDS011;7458;49.002;8.472;2023-08-30T05:51:10;1188.45;;;848.17;;
14734;SDS011;7458;49.002;8.472;2023-08-30T05:53:36;1184.90;;;837.83;;
14734;SDS011;7458;49.002;8.472;2023-08-30T05:56:03;1188.85;;;851.72;;
14734;SDS011;7458;49.002;8.472;2023-08-30T05:58:29;1186.32;;;844.80;;
14734;SDS011;7458;49.002;8.472;2023-08-30T06:00:56;1185.18;;;841.25;;
14734;SDS011;7458;49.002;8.472;2023-08-30T06:03:22;1145.18;;;908.15;;
14734;SDS011;7458;49.002;8.472;2023-08-30T06:05:48;1180.38;;;842.33;;
14734;SDS011;7458;49.002;8.472;2023-08-30T06:08:14;1179.32;;;841.10;;
14734;SDS011;7458;49.002;8.472;2023-08-30T06:10:40;1140.70;;;904.72;;
14734;SDS011;7458;49.002;8.472;2023-08-30T06:13:06;1173.95;;;838.10;;
14734;SDS011;7458;49.002;8.472;2023-08-30T06:15:32;1130.68;;;909.67;;
14734;SDS011;7458;49.002;8.472;2023-08-30T06:17:58;1168.35;;;843.38;;
14734;SDS011;7458;49.002;8.472;2023-08-30T06:20:24;1119.28;;;907.70;;
14734;SDS011;7458;49.002;8.472;2023-08-30T06:22:50;1114.90;;;919.53;;
14734;SDS011;7458;49.002;8.472;2023-08-30T06:25:16;1110.18;;;915.08;;
14734;SDS011;7458;49.002;8.472;2023-08-30T06:27:43;1151.50;;;835.15;;
14734;SDS011;7458;49.002;8.472;2023-08-30T06:30:21;1102.45;;;897.30;;
14734;SDS011;7458;49.002;8.472;2023-08-30T06:32:47;1150.20;;;838.58;;
14734;SDS011;7458;49.002;8.472;2023-08-30T06:35:14;1148.20;;;835.97;;
14734;SDS011;7458;49.002;8.472;2023-08-30T06:37:40;1143.70;;;835.03;;
14734;SDS011;7458;49.002;8.472;2023-08-30T06:40:07;1138.93;;;826.40;;
14734;SDS011;7458;49.002;8.472;2023-08-30T06:42:33;1091.07;;;893.75;;
14734;SDS011;7458;49.002;8.472;2023-08-30T06:44:59;1078.18;;;871.13;;
14734;SDS011;7458;49.002;8.472;2023-08-30T06:47:26;1222.35;;;914.50;;
14734;SDS011;7458;49.002;8.472;2023-08-30T06:49:52;1137.20;;;810.20;;
14734;SDS011;7458;49.002;8.472;2023-08-30T06:52:18;1060.05;;;855.38;;
14734;SDS011;7458;49.002;8.472;2023-08-30T06:54:44;1189.38;;;834.53;;
14734;SDS011;7458;49.002;8.472;2023-08-30T06:57:10;1231.32;;;999.90;;
14734;SDS011;7458;49.002;8.472;2023-08-30T06:59:36;1203.25;;;999.90;;
14734;SDS011;7458;49.002;8.472;2023-08-30T07:02:02;1204.13;;;999.90;;
14734;SDS011;7458;49.002;8.472;2023-08-30T07:04:29;1274.53;;;999.90;;
14734;SDS011;7458;49.002;8.472;2023-08-30T07:06:54;1228.40;;;999.90;;
14734;SDS011;7458;49.002;8.472;2023-08-30T07:09:21;1262.78;;;999.90;;
14734;SDS011;7458;49.002;8.472;2023-08-30T07:11:53;1273.85;;;999.90;;
14734;SDS011;7458;49.002;8.472;2023-08-30T07:14:20;1220.05;;;999.90;;
14734;SDS011;7458;49.002;8.472;2023-08-30T07:16:46;1288.93;;;999.90;;
14734;SDS011;7458;49.002;8.472;2023-08-30T07:19:11;1226.43;;;999.90;;
14734;SDS011;7458;49.002;8.472;2023-08-30T07:21:37;1222.65;;;999.90;;
14734;SDS011;7458;49.002;8.472;2023-08-30T07:24:04;1218.90;;;999.90;;
14734;SDS011;7458;49.002;8.472;2023-08-30T07:26:31;1222.97;;;999.90;;
14734;SDS011;7458;49.002;8.472;2023-08-30T07:28:57;1294.95;;;999.90;;
14734;SDS011;7458;49.002;8.472;2023-08-30T07:31:23;1222.10;;;999.90;;
14734;SDS011;7458;49.002;8.472;2023-08-30T07:33:49;1226.40;;;999.90;;
14734;SDS011;7458;49.002;8.472;2023-08-30T07:36:15;1274.50;;;999.90;;
14734;SDS011;7458;49.002;8.472;2023-08-30T07:38:40;1275.85;;;999.90;;
14734;SDS011;7458;49.002;8.472;2023-08-30T07:41:06;1225.47;;;989.03;;
14734;SDS011;7458;49.002;8.472;2023-08-30T07:43:32;1266.55;;;999.90;;
14734;SDS011;7458;49.002;8.472;2023-08-30T07:45:58;1225.28;;;999.22;;
14734;SDS011;7458;49.002;8.472;2023-08-30T07:48:24;1224.32;;;998.72;;
14734;SDS011;7458;49.002;8.472;2023-08-30T07:50:50;1218.80;;;999.90;;
14734;SDS011;7458;49.002;8.472;2023-08-30T07:53:16;1222.60;;;988.08;;
14734;SDS011;7458;49.002;8.472;2023-08-30T07:55:42;1272.07;;;999.90;;
14734;SDS011;7458;49.002;8.472;2023-08-30T07:58:12;1228.78;;;998.80;;
14734;SDS011;7458;49.002;8.472;2023-08-30T08:00:39;1223.75;;;978.33;;
14734;SDS011;7458;49.002;8.472;2023-08-30T08:03:05;1219.53;;;999.90;;
14734;SDS011;7458;49.002;8.472;2023-08-30T08:05:31;1247.63;;;999.90;;
14734;SDS011;7458;49.002;8.472;2023-08-30T08:07:59;1181.05;;;999.90;;
14734;SDS011;7458;49.002;8.472;2023-08-30T08:10:26;1196.72;;;999.90;;
14734;SDS011;7458;49.002;8.472;2023-08-30T08:12:52;1196.88;;;999.83;;
14734;SDS011;7458;49.002;8.472;2023-08-30T08:15:18;1273.65;;;999.90;;
14734;SDS011;7458;49.002;8.472;2023-08-30T08:17:44;1333.28;;;999.90;;
14734;SDS011;7458;49.002;8.472;2023-08-30T08:20:10;1221.75;;;942.30;;
14734;SDS011;7458;49.002;8.472;2023-08-30T08:22:36;1261.68;;;999.90;;
14734;SDS011;7458;49.002;8.472;2023-08-30T08:25:02;1209.72;;;970.05;;
14734;SDS011;7458;49.002;8.472;2023-08-30T08:27:28;1239.45;;;999.90;;
14734;SDS011;7458;49.002;8.472;2023-08-30T08:29:55;1263.47;;;999.90;;
14734;SDS011;7458;49.002;8.472;2023-08-30T08:32:20;1238.32;;;999.90;;
14734;SDS011;7458;49.002;8.472;2023-08-30T08:34:47;1226.65;;;999.90;;
14734;SDS011;7458;49.002;8.472;2023-08-30T08:37:13;1205.55;;;999.90;;
14734;SDS011;7458;49.002;8.472;2023-08-30T08:39:39;1209.53;;;995.53;;
14734;SDS011;7458;49.002;8.472;2023-08-30T08:42:06;1251.40;;;999.90;;
14734;SDS011;7458;49.002;8.472;2023-08-30T08:44:33;1185.78;;;999.90;;
14734;SDS011;7458;49.002;8.472;2023-08-30T08:47:01;1266.53;;;999.90;;
14734;SDS011;7458;49.002;8.472;2023-08-30T08:49:28;1206.78;;;973.67;;
14734;SDS011;7458;49.002;8.472;2023-08-30T08:51:56;1203.80;;;927.45;;
14734;SDS011;7458;49.002;8.472;2023-08-30T08:54:22;1243.10;;;999.90;;
14734;SDS011;7458;49.002;8.472;2023-08-30T08:56:49;1194.05;;;999.90;;
14734;SDS011;7458;49.002;8.472;2023-08-30T08:59:15;1219.38;;;967.25;;
14734;SDS011;7458;49.002;8.472;2023-08-30T09:01:41;1218.82;;;936.75;;
14734;SDS011;7458;49.002;8.472;2023-08-30T09:04:08;1224.25;;;914.97;;
14734;SDS011;7458;49.002;8.472;2023-08-30T09:06:36;1220.20;;;887.05;;
14734;SDS011;7458;49.002;8.472;2023-08-30T09:09:04;1222.15;;;936.33;;
14734;SDS011;7458;49.002;8.472;2023-08-30T09:11:31;1224.13;;;910.00;;
14734;SDS011;7458;49.002;8.472;2023-08-30T09:13:58;1213.00;;;999.90;;
14734;SDS011;7458;49.002;8.472;2023-08-30T09:16:23;1173.20;;;960.15;;
14734;SDS011;7458;49.002;8.472;2023-08-30T09:19:03;1295.13;;;999.90;;
14734;SDS011;7458;49.002;8.472;2023-08-30T09:21:29;1208.30;;;959.10;;
14734;SDS011;7458;49.002;8.472;2023-08-30T09:24:05;1244.85;;;999.90;;
14734;SDS011;7458;49.002;8.472;2023-08-30T09:26:33;1285.78;;;999.90;;
14734;SDS011;7458;49.002;8.472;2023-08-30T09:31:34;1165.75;;;982.45;;
14734;SDS011;7458;49.002;8.472;2023-08-30T09:34:02;1201.50;;;984.42;;
14734;SDS011;7458;49.002;8.472;2023-08-30T09:39:05;1217.82;;;999.90;;
14734;SDS011;7458;49.002;8.472;2023-08-30T09:41:45;1243.28;;;999.90;;
14734;SDS011;7458;49.002;8.472;2023-08-30T09:44:17;1256.35;;;999.90;;
14734;SDS011;7458;49.002;8.472;2023-08-30T09:46:47;1246.32;;;999.90;;
14734;SDS011;7458;49.002;8.472;2023-08-30T09:49:25;1288.47;;;999.90;;
14734;SDS011;7458;49.002;8.472;2023-08-30T09:51:52;1319.75;;;999.90;;
14734;SDS011;7458;49.002;8.472;2023-08-30T09:54:20;1328.72;;;999.90;;
14734;SDS011;7458;49.002;8.472;2023-08-30T09:56:48;1309.78;;;999.90;;
14734;SDS011;7458;49.002;8.472;2023-08-30T09:59:17;1204.43;;;999.90;;
14734;SDS011;7458;49.002;8.472;2023-08-30T10:01:46;1205.65;;;999.90;;
14734;SDS011;7458;49.002;8.472;2023-08-30T10:04:17;1212.88;;;970.05;;
14734;SDS011;7458;49.002;8.472;2023-08-30T10:06:45;1216.43;;;999.90;;
14734;SDS011;7458;49.002;8.472;2023-08-30T10:09:12;1285.22;;;999.90;;
14734;SDS011;7458;49.002;8.472;2023-08-30T10:11:42;1246.47;;;999.90;;
14734;SDS011;7458;49.002;8.472;2023-08-30T10:14:10;1340.10;;;999.90;;
14734;SDS011;7458;49.002;8.472;2023-08-30T10:16:42;1253.30;;;999.90;;
14734;SDS011;7458;49.002;8.472;2023-08-30T10:19:11;1266.53;;;999.90;;
14734;SDS011;7458;49.002;8.472;2023-08-30T10:21:44;1376.40;;;999.90;;
14734;SDS011;7458;49.002;8.472;2023-08-30T10:24:14;1199.97;;;999.90;;
14734;SDS011;7458;49.002;8.472;2023-08-30T10:26:44;1228.35;;;999.90;;
14734;SDS011;7458;49.002;8.472;2023-08-30T10:29:12;1187.25;;;999.90;;
14734;SDS011;7458;49.002;8.472;2023-08-30T10:31:41;1220.80;;;999.90;;
14734;SDS011;7458;49.002;8.472;2023-08-30T10:34:14;1185.38;;;999.90;;
14734;SDS011;7458;49.002;8.472;2023-08-30T10:36:42;1178.85;;;999.90;;
14734;SDS011;7458;49.002;8.472;2023-08-30T10:39:12;1258.63;;;999.90;;
14734;SDS011;7458;49.002;8.472;2023-08-30T10:41:55;1213.10;;;909.17;;
14734;SDS011;7458;49.002;8.472;2023-08-30T10:44:22;1216.05;;;938.28;;
14734;SDS011;7458;49.002;8.472;2023-08-30T10:46:52;1212.72;;;875.60;;
14734;SDS011;7458;49.002;8.472;2023-08-30T10:49:19;1224.55;;;999.90;;
14734;SDS011;7458;49.002;8.472;2023-08-30T10:51:53;1219.47;;;968.80;;
14734;SDS011;7458;49.002;8.472;2023-08-30T10:54:26;1181.80;;;999.25;;
14734;SDS011;7458;49.002;8.472;2023-08-30T10:57:03;1212.40;;;840.10;;
14734;SDS011;7458;49.002;8.472;2023-08-30T10:59:29;1176.30;;;983.28;;
14734;SDS011;7458;49.002;8.472;2023-08-30T11:01:55;1178.53;;;989.47;;
14734;SDS011;7458;49.002;8.472;2023-08-30T11:04:25;1212.40;;;918.97;;
14734;SDS011;7458;49.002;8.472;2023-08-30T11:06:51;1215.70;;;900.20;;
14734;SDS011;7458;49.002;8.472;2023-08-30T11:09:21;1209.93;;;864.05;;
14734;SDS011;7458;49.002;8.472;2023-08-30T11:11:50;1213.82;;;903.80;;
14734;SDS011;7458;49.002;8.472;2023-08-30T11:14:17;1163.90;;;935.60;;
14734;SDS011;7458;49.002;8.472;2023-08-30T11:16:44;1201.85;;;830.17;;
14734;SDS011;7458;49.002;8.472;2023-08-30T11:19:10;1163.82;;;954.72;;
14734;SDS011;7458;49.002;8.472;2023-08-30T11:21:37;1194.78;;;796.92;;
14734;SDS011;7458;49.002;8.472;2023-08-30T11:24:10;1189.18;;;838.30;;
14734;SDS011;7458;49.002;8.472;2023-08-30T11:26:37;1114.05;;;837.13;;
14734;SDS011;7458;49.002;8.472;2023-08-30T11:29:06;1105.20;;;862.40;;
14734;SDS011;7458;49.002;8.472;2023-08-30T11:31:33;1150.53;;;800.95;;
14734;SDS011;7458;49.002;8.472;2023-08-30T11:33:59;1140.25;;;903.53;;
14734;SDS011;7458;49.002;8.472;2023-08-30T11:36:30;1106.15;;;856.47;;
14734;SDS011;7458;49.002;8.472;2023-08-30T11:39:00;1213.22;;;878.20;;
14734;SDS011;7458;49.002;8.472;2023-08-30T11:41:25;1141.85;;;872.70;;
14734;SDS011;7458;49.002;8.472;2023-08-30T11:43:52;1186.40;;;999.90;;
14734;SDS011;7458;49.002;8.472;2023-08-30T11:46:20;1233.60;;;881.20;;
14734;SDS011;7458;49.002;8.472;2023-08-30T11:48:47;1228.25;;;881.38;;
14734;SDS011;7458;49.002;8.472;2023-08-30T11:51:16;1186.63;;;999.90;;
14734;SDS011;7458;49.002;8.472;2023-08-30T11:53:43;1182.40;;;999.90;;
14734;SDS011;7458;49.002;8.472;2023-08-30T11:56:11;1187.80;;;999.90;;
14734;SDS011;7458;49.002;8.472;2023-08-30T11:58:37;1205.00;;;999.90;;
14734;SDS011;7458;49.002;8.472;2023-08-30T12:01:03;1165.95;;;921.47;;
14734;SDS011;7458;49.002;8.472;2023-08-30T12:03:30;1203.80;;;999.90;;
14734;SDS011;7458;49.002;8.472;2023-08-30T12:05:57;1222.95;;;880.15;;
14734;SDS011;7458;49.002;8.472;2023-08-30T12:08:24;1184.80;;;999.90;;
14734;SDS011;7458;49.002;8.472;2023-08-30T12:10:57;1235.40;;;905.97;;
14734;SDS011;7458;49.002;8.472;2023-08-30T12:13:29;1234.90;;;889.78;;
14734;SDS011;7458;49.002;8.472;2023-08-30T12:15:59;1168.03;;;931.75;;
14734;SDS011;7458;49.002;8.472;2023-08-30T12:18:27;1163.45;;;881.03;;
14734;SDS011;7458;49.002;8.472;2023-08-30T12:20:58;1167.63;;;924.88;;
14734;SDS011;7458;49.002;8.472;2023-08-30T12:23:31;1158.53;;;888.75;;
14734;SDS011;7458;49.002;8.472;2023-08-30T12:26:08;1153.63;;;842.70;;
14734;SDS011;7458;49.002;8.472;2023-08-30T12:28:39;1216.20;;;831.13;;
14734;SDS011;7458;49.002;8.472;2023-08-30T12:31:09;1137.40;;;837.40;;
14734;SDS011;7458;49.002;8.472;2023-08-30T12:33:35;1210.07;;;790.58;;
14734;SDS011;7458;49.002;8.472;2023-08-30T12:36:02;1137.82;;;821.60;;
14734;SDS011;7458;49.002;8.472;2023-08-30T12:38:29;1198.72;;;770.70;;
14734;SDS011;7458;49.002;8.472;2023-08-30T12:40:55;1228.95;;;897.22;;
14734;SDS011;7458;49.002;8.472;2023-08-30T12:43:22;1212.75;;;774.53;;
14734;SDS011;7458;49.002;8.472;2023-08-30T12:45:49;1183.65;;;769.25;;
14734;SDS011;7458;49.002;8.472;2023-08-30T12:48:16;1178.53;;;775.88;;
14734;SDS011;7458;49.002;8.472;2023-08-30T12:50:43;1184.80;;;800.45;;
14734;SDS011;7458;49.002;8.472;2023-08-30T12:53:16;1187.38;;;770.58;;
14734;SDS011;7458;49.002;8.472;2023-08-30T12:55:42;1131.75;;;805.53;;
14734;SDS011;7458;49.002;8.472;2023-08-30T12:58:08;1182.95;;;999.90;;
14734;SDS011;7458;49.002;8.472;2023-08-30T13:00:35;1226.75;;;921.05;;
14734;SDS011;7458;49.002;8.472;2023-08-30T13:03:01;1229.15;;;889.60;;
14734;SDS011;7458;49.002;8.472;2023-08-30T13:05:30;1174.22;;;936.75;;
14734;SDS011;7458;49.002;8.472;2023-08-30T13:07:57;1128.30;;;830.72;;
14734;SDS011;7458;49.002;8.472;2023-08-30T13:10:24;1149.40;;;906.38;;
14734;SDS011;7458;49.002;8.472;2023-08-30T13:12:50;1187.70;;;999.90;;
14734;SDS011;7458;49.002;8.472;2023-08-30T13:15:16;1173.43;;;918.30;;
14734;SDS011;7458;49.002;8.472;2023-08-30T13:17:41;1161.75;;;890.90;;
14734;SDS011;7458;49.002;8.472;2023-08-30T13:20:07;1159.43;;;871.45;;
14734;SDS011;7458;49.002;8.472;2023-08-30T13:22:34;1167.35;;;895.55;;
14734;SDS011;7458;49.002;8.472;2023-08-30T13:25:00;1203.53;;;786.78;;
14734;SDS011;7458;49.002;8.472;2023-08-30T13:27:26;1158.13;;;835.42;;
14734;SDS011;7458;49.002;8.472;2023-08-30T13:29:51;1189.00;;;794.75;;
14734;SDS011;7458;49.002;8.472;2023-08-30T13:32:17;1166.50;;;927.25;;
14734;SDS011;7458;49.002;8.472;2023-08-30T13:34:43;1198.35;;;781.83;;
14734;SDS011;7458;49.002;8.472;2023-08-30T13:37:10;1237.63;;;981.25;;
14734;SDS011;7458;49.002;8.472;2023-08-30T13:39:40;1242.05;;;999.90;;
14734;SDS011;7458;49.002;8.472;2023-08-30T13:42:06;1236.10;;;942.80;;
14734;SDS011;7458;49.002;8.472;2023-08-30T13:44:32;1222.78;;;791.80;;
14734;SDS011;7458;49.002;8.472;2023-08-30T13:47:01;1221.85;;;776.17;;
14734;SDS011;7458;49.002;8.472;2023-08-30T13:49:26;1153.60;;;825.08;;
14734;SDS011;7458;49.002;8.472;2023-08-30T13:51:52;1164.15;;;865.17;;
14734;SDS011;7458;49.002;8.472;2023-08-30T13:54:19;1206.40;;;776.22;;
14734;SDS011;7458;49.002;8.472;2023-08-30T13:56:44;1147.40;;;833.72;;
14734;SDS011;7458;49.002;8.472;2023-08-30T13:59:10;1193.88;;;764.42;;
14734;SDS011;7458;49.002;8.472;2023-08-30T14:01:36;1149.00;;;893.58;;
14734;SDS011;7458;49.002;8.472;2023-08-30T14:04:01;1181.47;;;938.10;;
14734;SDS011;7458;49.002;8.472;2023-08-30T14:06:29;1168.82;;;889.05;;
14734;SDS011;7458;49.002;8.472;2023-08-30T14:08:57;1174.60;;;783.85;;
14734;SDS011;7458;49.002;8.472;2023-08-30T14:11:23;1186.70;;;770.80;;